Time;durP1;ratioP1;P1;durP2;ratioP2;P2;SDS_P1;SDS_P2;PMS_P1;PMS_P2;Temp;Humidity;BMP_temperature;BMP_pressure;BME280_temperature;BME280_humidity;BME280_pressure;Samples;Min_cycle;Max_cycle;Signal;HPM_P1;HPM_P2
2020/12/17 00:00:19;;;;;;;32.55;11.23;;;5.80;84.90;;;;;;4981400;28;20415;-66
2020/12/17 00:02:45;;;;;;;18.15;11.30;;;5.90;85.10;;;;;;4982382;28;20612;-67
2020/12/17 00:05:11;;;;;;;24.20;10.88;;;5.90;85.10;;;;;;4992618;28;20034;-66
2020/12/17 00:07:38;;;;;;;17.45;9.70;;;5.90;85.10;;;;;;4989089;28;20421;-67
2020/12/17 00:10:05;;;;;;;34.00;11.77;;;5.80;85.00;;;;;;4983450;28;20039;-66
2020/12/17 00:12:41;;;;;;;35.80;10.60;;;5.80;84.90;;;;;;4981552;28;20516;-68
2020/12/17 00:15:09;;;;;;;41.42;10.85;;;5.80;84.90;;;;;;4983807;28;20026;-68
2020/12/17 00:17:53;;;;;;;45.33;10.90;;;5.80;84.90;;;;;;4983135;28;20042;-69
2020/12/17 00:20:21;;;;;;;44.55;11.68;;;5.70;85.20;;;;;;4982162;28;20031;-69
2020/12/17 00:22:47;;;;;;;43.20;12.02;;;5.70;85.10;;;;;;4984393;28;20125;-69
2020/12/17 00:25:15;;;;;;;51.67;11.68;;;5.70;85.10;;;;;;4984540;28;20305;-68
2020/12/17 00:27:41;;;;;;;29.63;11.52;;;5.70;85.10;;;;;;4984533;28;20031;-69
2020/12/17 00:30:09;;;;;;;17.90;10.45;;;5.60;85.20;;;;;;4991905;28;20030;-70
2020/12/17 00:32:35;;;;;;;17.13;10.18;;;5.70;85.30;;;;;;4983104;28;20052;-69
2020/12/17 00:35:01;;;;;;;16.45;10.45;;;5.60;85.10;;;;;;4985560;28;20498;-68
2020/12/17 00:37:29;;;;;;;12.68;9.18;;;5.60;85.10;;;;;;4984923;28;20080;-68
2020/12/17 00:39:55;;;;;;;12.38;9.32;;;5.60;85.10;;;;;;4984869;28;20567;-68
2020/12/17 00:42:20;;;;;;;11.70;9.02;;;5.60;84.90;;;;;;4986293;28;20034;-69
2020/12/17 00:44:46;;;;;;;10.27;8.05;;;5.60;84.90;;;;;;4983617;28;20118;-68
2020/12/17 00:47:11;;;;;;;13.40;9.15;;;5.50;85.00;;;;;;4985910;28;20034;-69
2020/12/17 00:49:37;;;;;;;12.15;9.23;;;5.50;85.10;;;;;;4986791;28;20030;-68
2020/12/17 00:52:03;;;;;;;10.57;7.80;;;5.40;85.10;;;;;;4989199;28;20076;-69
2020/12/17 00:54:29;;;;;;;9.10;7.60;;;5.40;85.10;;;;;;4988249;28;20104;-69
2020/12/17 00:56:55;;;;;;;9.57;7.43;;;5.40;85.10;;;;;;4981157;28;20515;-68
2020/12/17 00:59:21;;;;;;;9.20;7.18;;;5.40;85.00;;;;;;4986089;28;20042;-67
2020/12/17 01:01:48;;;;;;;8.98;7.03;;;5.30;84.80;;;;;;4982601;28;20038;-68
2020/12/17 01:04:14;;;;;;;8.65;6.78;;;5.30;84.70;;;;;;4983295;28;20038;-68
2020/12/17 01:06:40;;;;;;;7.47;6.53;;;5.30;84.60;;;;;;4985202;28;20045;-69
2020/12/17 01:09:06;;;;;;;9.95;7.10;;;5.30;84.50;;;;;;4984512;28;20039;-66
2020/12/17 01:11:32;;;;;;;8.93;7.07;;;5.30;84.40;;;;;;4979151;28;20143;-68
2020/12/17 01:13:58;;;;;;;9.32;7.50;;;5.30;84.40;;;;;;4985124;28;20169;-67
2020/12/17 01:16:24;;;;;;;9.15;7.43;;;5.20;84.40;;;;;;4990151;28;20038;-69
2020/12/17 01:18:50;;;;;;;10.00;7.82;;;5.20;84.40;;;;;;4989853;28;20034;-68
2020/12/17 01:21:17;;;;;;;9.88;7.70;;;5.20;84.60;;;;;;4986474;28;20026;-67
2020/12/17 01:23:43;;;;;;;8.82;7.70;;;5.10;84.60;;;;;;4979018;28;20065;-68
2020/12/17 01:26:10;;;;;;;10.30;7.88;;;5.20;85.60;;;;;;4983689;28;20035;-68
2020/12/17 01:28:39;;;;;;;12.10;8.10;;;5.10;84.80;;;;;;4982547;28;20026;-69
2020/12/17 01:31:15;;;;;;;10.00;7.68;;;5.20;84.80;;;;;;4978958;28;20127;-68
2020/12/17 01:33:42;;;;;;;10.10;7.80;;;5.10;84.80;;;;;;4981063;28;20027;-68
2020/12/17 01:36:10;;;;;;;8.73;7.43;;;5.10;84.90;;;;;;4983268;28;20035;-68
2020/12/17 01:38:40;;;;;;;11.57;8.35;;;5.20;84.90;;;;;;4966429;28;20027;-66
2020/12/17 01:41:07;;;;;;;12.35;8.95;;;5.20;84.80;;;;;;4984921;28;20027;-67
2020/12/17 01:43:38;;;;;;;13.45;8.02;;;5.20;84.70;;;;;;4979117;28;20033;-68
2020/12/17 01:46:04;;;;;;;12.57;8.68;;;5.20;84.60;;;;;;4981173;28;20050;-67
2020/12/17 01:48:31;;;;;;;11.52;8.15;;;5.20;84.60;;;;;;4982037;28;20134;-67
2020/12/17 01:50:57;;;;;;;11.80;8.25;;;5.20;85.30;;;;;;4977088;28;20457;-68
2020/12/17 01:53:22;;;;;;;9.88;7.78;;;5.10;84.60;;;;;;4979902;28;20130;-69
2020/12/17 01:55:48;;;;;;;9.70;7.95;;;5.20;84.80;;;;;;4983606;28;20038;-68
2020/12/17 01:58:22;;;;;;;12.70;8.32;;;5.20;84.90;;;;;;4980756;28;20117;-68
2020/12/17 02:00:52;;;;;;;12.75;8.50;;;5.20;85.00;;;;;;4975745;28;20462;-69
2020/12/17 02:03:18;;;;;;;10.68;8.02;;;5.20;84.70;;;;;;4982132;28;20497;-68
2020/12/17 02:05:43;;;;;;;11.13;8.55;;;5.20;84.60;;;;;;4980149;28;20100;-68
2020/12/17 02:08:13;;;;;;;12.00;8.32;;;5.20;84.40;;;;;;4980088;28;20061;-68
2020/12/17 02:10:40;;;;;;;10.18;7.95;;;5.20;84.40;;;;;;4977269;28;20045;-69
2020/12/17 02:13:05;;;;;;;10.30;7.60;;;5.20;84.50;;;;;;4981451;28;20092;-67
2020/12/17 02:15:31;;;;;;;11.52;8.18;;;5.20;84.60;;;;;;4978363;28;20520;-68
2020/12/17 02:17:57;;;;;;;11.80;9.15;;;5.20;84.70;;;;;;4980193;28;20041;-67
2020/12/17 02:20:22;;;;;;;10.50;8.18;;;5.20;84.70;;;;;;4981582;28;20089;-67
2020/12/17 02:22:48;;;;;;;14.40;8.80;;;5.20;84.70;;;;;;4978559;28;20050;-68
2020/12/17 02:25:15;;;;;;;12.13;8.82;;;5.20;84.70;;;;;;4980317;28;20026;-68
2020/12/17 02:27:42;;;;;;;11.93;9.10;;;5.20;84.70;;;;;;4978065;28;20054;-68
2020/12/17 02:30:09;;;;;;;12.43;8.82;;;5.20;84.80;;;;;;4980509;28;20059;-69
2020/12/17 02:32:36;;;;;;;13.13;9.13;;;5.20;84.90;;;;;;4979867;28;20030;-65
2020/12/17 02:35:04;;;;;;;16.98;8.65;;;5.20;84.80;;;;;;4980003;28;20031;-68
2020/12/17 02:37:30;;;;;;;11.60;8.43;;;5.20;84.90;;;;;;4977087;28;20026;-68
2020/12/17 02:39:55;;;;;;;14.38;8.57;;;5.20;84.90;;;;;;4978018;28;20042;-68
2020/12/17 02:42:21;;;;;;;13.77;8.60;;;5.20;84.90;;;;;;4978917;28;20054;-68
2020/12/17 02:44:47;;;;;;;13.40;8.63;;;5.30;85.10;;;;;;4987878;28;20397;-68
2020/12/17 02:47:12;;;;;;;14.80;8.73;;;5.30;85.10;;;;;;4983461;28;20498;-68
2020/12/17 02:49:38;;;;;;;14.35;8.02;;;5.30;85.10;;;;;;4979285;28;20526;-68
2020/12/17 02:52:04;;;;;;;15.00;8.45;;;5.30;85.10;;;;;;4979059;28;20045;-67
2020/12/17 02:54:29;;;;;;;19.27;8.35;;;5.30;85.10;;;;;;4977757;28;20185;-67
2020/12/17 02:56:55;;;;;;;15.63;8.18;;;5.30;85.10;;;;;;4983267;28;20039;-68
2020/12/17 02:59:21;;;;;;;13.38;8.15;;;5.30;85.20;;;;;;4980176;28;20049;-68
2020/12/17 03:01:46;;;;;;;10.60;8.07;;;5.30;85.40;;;;;;4962409;28;20619;-68
2020/12/17 03:04:12;;;;;;;12.05;7.90;;;5.30;85.30;;;;;;4980802;28;20556;-68
2020/12/17 03:06:37;;;;;;;10.63;7.72;;;5.30;85.40;;;;;;4978849;28;20039;-68
2020/12/17 03:09:05;;;;;;;9.75;7.75;;;5.30;85.60;;;;;;4988208;28;20639;-67
2020/12/17 03:11:30;;;;;;;11.60;7.97;;;5.30;85.60;;;;;;4983086;28;20039;-68
2020/12/17 03:13:56;;;;;;;11.38;8.07;;;5.30;85.60;;;;;;4983716;28;20045;-68
2020/12/17 03:16:22;;;;;;;9.52;7.47;;;5.30;85.60;;;;;;4983409;28;20043;-68
2020/12/17 03:18:47;;;;;;;10.35;7.60;;;5.30;85.60;;;;;;4983202;28;20121;-68
2020/12/17 03:21:13;;;;;;;9.48;7.32;;;5.30;85.60;;;;;;4980548;28;20038;-68
2020/12/17 03:23:39;;;;;;;11.77;7.97;;;5.40;85.60;;;;;;4982180;28;20039;-68
2020/12/17 03:26:04;;;;;;;10.27;7.97;;;5.30;85.60;;;;;;4984177;28;20757;-69
2020/12/17 03:28:30;;;;;;;11.65;7.55;;;5.40;85.60;;;;;;4985712;28;20067;-68
2020/12/17 03:30:56;;;;;;;12.30;7.47;;;5.40;85.60;;;;;;4981376;28;20534;-68
2020/12/17 03:33:21;;;;;;;11.93;8.27;;;5.40;85.60;;;;;;4986645;28;20034;-68
2020/12/17 03:35:47;;;;;;;10.65;7.95;;;5.40;85.60;;;;;;4986710;28;20031;-68
2020/12/17 03:38:13;;;;;;;15.77;8.57;;;5.40;85.70;;;;;;4984889;28;20052;-68
2020/12/17 03:40:38;;;;;;;17.20;8.90;;;5.40;85.60;;;;;;4985496;28;20125;-68
2020/12/17 03:43:04;;;;;;;12.70;8.43;;;5.40;85.40;;;;;;4985441;28;20061;-69
2020/12/17 03:45:29;;;;;;;12.05;8.38;;;5.40;85.40;;;;;;4985048;28;20041;-66
2020/12/17 03:47:55;;;;;;;10.43;7.88;;;5.40;85.40;;;;;;4981933;28;20518;-68
2020/12/17 03:50:21;;;;;;;9.40;7.53;;;5.40;85.40;;;;;;4982633;28;20066;-68
2020/12/17 03:52:46;;;;;;;11.82;8.00;;;5.40;85.40;;;;;;4982102;28;20069;-68
2020/12/17 03:55:12;;;;;;;12.38;7.93;;;5.40;85.40;;;;;;4980727;28;20026;-67
2020/12/17 03:57:38;;;;;;;12.93;8.13;;;5.40;85.50;;;;;;4984857;28;20046;-68
2020/12/17 04:00:06;;;;;;;12.82;7.88;;;5.40;85.60;;;;;;4983826;28;20034;-67
2020/12/17 04:02:32;;;;;;;10.82;7.35;;;5.40;86.40;;;;;;4980718;28;20057;-67
2020/12/17 04:04:58;;;;;;;11.07;7.90;;;5.40;85.50;;;;;;4982630;28;20038;-68
2020/12/17 04:07:23;;;;;;;11.65;7.85;;;5.40;85.60;;;;;;4983063;28;20038;-68
2020/12/17 04:09:49;;;;;;;10.65;8.00;;;5.40;85.60;;;;;;4985563;28;20061;-68
2020/12/17 04:12:14;;;;;;;18.15;8.05;;;5.50;85.60;;;;;;4987998;28;20041;-68
2020/12/17 04:14:41;;;;;;;12.65;8.10;;;5.40;85.50;;;;;;4990971;28;20038;-68
2020/12/17 04:17:07;;;;;;;10.73;7.78;;;5.40;85.50;;;;;;4987319;28;20061;-68
2020/12/17 04:19:32;;;;;;;9.60;7.50;;;5.40;85.40;;;;;;4984497;28;20125;-68
2020/12/17 04:21:58;;;;;;;10.07;7.78;;;5.50;85.40;;;;;;4980687;28;20113;-68
2020/12/17 04:24:24;;;;;;;15.55;7.72;;;5.40;85.40;;;;;;4981956;28;20026;-68
2020/12/17 04:26:53;;;;;;;11.25;7.80;;;5.40;85.30;;;;;;4986858;28;20040;-67
2020/12/17 04:29:19;;;;;;;9.70;7.22;;;5.40;85.30;;;;;;4983072;28;20038;-68
2020/12/17 04:31:45;;;;;;;11.45;7.55;;;5.40;85.30;;;;;;4982733;28;20026;-68
2020/12/17 04:34:11;;;;;;;9.68;6.97;;;5.30;85.30;;;;;;4982911;28;20556;-68
2020/12/17 04:36:37;;;;;;;11.18;7.88;;;5.30;85.40;;;;;;4987110;28;20038;-68
2020/12/17 04:39:04;;;;;;;9.63;7.20;;;5.20;85.60;;;;;;4982212;28;20126;-68
2020/12/17 04:41:31;;;;;;;10.65;7.43;;;5.30;85.60;;;;;;4982320;28;20041;-68
2020/12/17 04:43:58;;;;;;;10.98;7.15;;;5.20;85.40;;;;;;4979854;28;20026;-68
2020/12/17 04:46:25;;;;;;;8.27;6.88;;;5.20;85.40;;;;;;4981139;28;20597;-68
2020/12/17 04:48:53;;;;;;;10.65;6.90;;;5.10;85.40;;;;;;4982128;28;20034;-68
2020/12/17 04:51:20;;;;;;;8.82;7.35;;;5.30;85.60;;;;;;4984834;28;20030;-68
2020/12/17 04:53:49;;;;;;;10.85;7.25;;;5.10;85.60;;;;;;4983376;28;20058;-68
2020/12/17 04:56:17;;;;;;;8.63;6.63;;;5.10;85.70;;;;;;4982892;28;20042;-68
2020/12/17 04:58:49;;;;;;;9.63;6.90;;;5.10;85.80;;;;;;4987744;28;20130;-67
2020/12/17 05:01:16;;;;;;;9.82;7.25;;;5.10;86.00;;;;;;4986456;28;20050;-68
2020/12/17 05:03:47;;;;;;;44.97;17.38;;;5.10;86.10;;;;;;4980309;28;20034;-68
2020/12/17 05:06:18;;;;;;;20.30;12.68;;;5.10;86.20;;;;;;4981546;28;20046;-67
2020/12/17 05:08:44;;;;;;;12.43;9.07;;;5.10;86.20;;;;;;4995405;28;20045;-68
2020/12/17 05:11:10;;;;;;;9.40;7.18;;;5.10;86.10;;;;;;4981292;28;20497;-68
2020/12/17 05:13:35;;;;;;;11.88;8.73;;;5.10;86.10;;;;;;4982310;28;20128;-68
2020/12/17 05:16:01;;;;;;;10.65;7.80;;;5.10;86.00;;;;;;4985592;28;20142;-68
2020/12/17 05:18:26;;;;;;;15.40;11.20;;;5.20;86.00;;;;;;4981409;28;20061;-68
2020/12/17 05:20:54;;;;;;;10.52;8.13;;;5.10;85.90;;;;;;4981440;28;20038;-67
2020/12/17 05:23:23;;;;;;;11.20;8.52;;;5.10;85.90;;;;;;4985260;28;20026;-67
2020/12/17 05:25:51;;;;;;;10.13;7.63;;;5.10;86.00;;;;;;4980283;28;20031;-68
2020/12/17 05:28:16;;;;;;;9.60;7.38;;;5.10;86.10;;;;;;4995991;28;20155;-68
2020/12/17 05:30:42;;;;;;;11.38;8.35;;;5.00;86.00;;;;;;4983515;28;20158;-67
2020/12/17 05:33:07;;;;;;;10.32;7.07;;;5.10;86.10;;;;;;4994954;28;20038;-68
2020/12/17 05:35:35;;;;;;;10.63;7.60;;;5.10;86.10;;;;;;4982914;28;20034;-68
2020/12/17 05:38:06;;;;;;;12.98;9.70;;;5.10;86.10;;;;;;4980125;28;20039;-68
2020/12/17 05:40:39;;;;;;;10.80;7.50;;;5.10;86.30;;;;;;4978938;28;20121;-68
2020/12/17 05:43:05;;;;;;;9.40;7.38;;;5.10;86.50;;;;;;4979112;28;20034;-67
2020/12/17 05:45:32;;;;;;;9.18;7.35;;;5.10;86.50;;;;;;4982451;28;20030;-68
2020/12/17 05:48:18;;;;;;;10.95;7.63;;;5.10;87.30;;;;;;4982060;28;20030;-68
2020/12/17 05:50:50;;;;;;;10.52;7.47;;;5.10;86.80;;;;;;4978272;28;20458;-68
2020/12/17 05:53:16;;;;;;;10.73;7.65;;;5.10;86.60;;;;;;4979627;28;20038;-68
2020/12/17 05:55:43;;;;;;;10.60;7.10;;;5.10;86.50;;;;;;4980849;28;20065;-68
2020/12/17 05:58:10;;;;;;;8.50;6.70;;;5.20;86.60;;;;;;4984591;28;20033;-68
2020/12/17 06:00:36;;;;;;;10.65;7.50;;;5.20;86.60;;;;;;4979656;28;20030;-68
2020/12/17 06:03:02;;;;;;;11.50;7.32;;;5.20;86.60;;;;;;4987338;28;20041;-68
2020/12/17 06:05:29;;;;;;;11.13;7.53;;;5.20;86.60;;;;;;4990553;28;20118;-67
2020/12/17 06:07:59;;;;;;;11.52;7.82;;;5.30;86.60;;;;;;4982297;28;20073;-68
2020/12/17 06:10:28;;;;;;;10.50;7.68;;;5.30;86.60;;;;;;4996314;28;21036;-68
2020/12/17 06:12:57;;;;;;;11.18;7.45;;;5.30;86.50;;;;;;4980825;28;20073;-68
2020/12/17 06:15:24;;;;;;;11.75;7.53;;;5.30;86.50;;;;;;4978078;28;20069;-68
2020/12/17 06:18:04;;;;;;;10.35;7.30;;;5.40;87.40;;;;;;4981835;28;20081;-68
2020/12/17 06:20:32;;;;;;;11.07;7.65;;;5.40;86.80;;;;;;4994276;28;20062;-68
2020/12/17 06:23:00;;;;;;;11.43;7.97;;;5.40;86.60;;;;;;4976391;28;20030;-69
2020/12/17 06:25:27;;;;;;;11.52;8.20;;;5.40;87.50;;;;;;4982786;28;20040;-68
2020/12/17 06:27:54;;;;;;;13.18;8.07;;;5.40;86.60;;;;;;4980330;28;20035;-68
2020/12/17 06:30:28;;;;;;;10.70;7.90;;;5.40;86.60;;;;;;4983254;28;20038;-68
2020/12/17 06:32:56;;;;;;;12.40;8.17;;;5.40;86.60;;;;;;4986025;28;20123;-68
2020/12/17 06:35:49;;;;;;;11.88;7.95;;;5.40;86.50;;;;;;4981770;28;20421;-68
2020/12/17 06:38:16;;;;;;;13.30;8.77;;;5.50;86.60;;;;;;4981925;28;20038;-68
2020/12/17 06:40:43;;;;;;;13.13;8.13;;;5.50;86.50;;;;;;4977705;28;20130;-68
2020/12/17 06:43:28;;;;;;;16.00;9.25;;;5.50;86.60;;;;;;4975749;28;20030;-68
2020/12/17 06:45:53;;;;;;;16.92;9.30;;;5.50;86.70;;;;;;4986177;28;20097;-68
2020/12/17 06:48:40;;;;;;;14.50;8.88;;;5.50;86.60;;;;;;4983385;28;20034;-68
2020/12/17 06:51:31;;;;;;;21.52;12.20;;;5.50;86.70;;;;;;4982428;28;20276;-68
2020/12/17 06:53:58;;;;;;;14.20;9.70;;;5.50;86.80;;;;;;4980685;28;20041;-67
2020/12/17 06:56:23;;;;;;;13.38;8.55;;;5.60;86.70;;;;;;4982733;28;20035;-69
2020/12/17 06:59:09;;;;;;;22.70;11.85;;;5.60;86.80;;;;;;4979604;28;20684;-66
2020/12/17 07:01:37;;;;;;;17.73;10.80;;;5.60;86.80;;;;;;4983421;28;20041;-67
2020/12/17 07:04:02;;;;;;;17.55;10.07;;;5.60;86.70;;;;;;4978656;28;20470;-68
2020/12/17 07:06:28;;;;;;;15.65;10.45;;;5.60;86.60;;;;;;4993571;28;20125;-68
2020/12/17 07:08:55;;;;;;;20.95;11.35;;;5.60;86.70;;;;;;4978451;28;20030;-68
2020/12/17 07:11:37;;;;;;;17.33;10.38;;;5.60;86.80;;;;;;4976970;28;20042;-69
2020/12/17 07:14:17;;;;;;;23.40;12.45;;;5.60;86.90;;;;;;4978157;28;20399;-67
2020/12/17 07:16:50;;;;;;;18.33;10.10;;;5.60;86.70;;;;;;4978756;28;20404;-68
2020/12/17 07:19:23;;;;;;;20.50;12.00;;;5.70;86.80;;;;;;4977892;28;20116;-67
2020/12/17 07:21:51;;;;;;;20.35;11.50;;;5.70;86.80;;;;;;4974710;28;20050;-68
2020/12/17 07:24:25;;;;;;;13.40;8.43;;;5.70;86.80;;;;;;4977583;28;20501;-68
2020/12/17 07:26:52;;;;;;;11.30;7.30;;;5.70;86.70;;;;;;4978496;28;20105;-68
2020/12/17 07:29:18;;;;;;;11.93;7.38;;;5.70;86.50;;;;;;4979249;28;20053;-68
2020/12/17 07:31:44;;;;;;;12.65;8.32;;;5.70;86.50;;;;;;4979313;28;20077;-68
2020/12/17 07:34:16;;;;;;;14.25;8.57;;;5.70;86.50;;;;;;4967376;28;20130;-68
2020/12/17 07:36:49;;;;;;;12.02;8.70;;;5.70;86.60;;;;;;4952417;28;20038;-68
2020/12/17 07:39:15;;;;;;;11.73;7.65;;;5.70;86.50;;;;;;4967026;28;20046;-68
2020/12/17 07:41:41;;;;;;;11.93;7.82;;;5.60;86.50;;;;;;4967042;28;20061;-68
2020/12/17 07:44:09;;;;;;;11.43;7.85;;;5.60;86.40;;;;;;4971973;28;20053;-67
2020/12/17 07:46:36;;;;;;;14.38;8.85;;;5.60;86.50;;;;;;4968082;28;20031;-66
2020/12/17 07:49:02;;;;;;;13.77;10.00;;;5.60;86.50;;;;;;4968562;28;20745;-66
2020/12/17 07:51:30;;;;;;;11.43;7.70;;;5.60;86.50;;;;;;4967428;28;20243;-67
2020/12/17 07:53:56;;;;;;;10.52;7.55;;;5.60;86.60;;;;;;4982438;28;20038;-67
2020/12/17 07:56:22;;;;;;;12.35;8.32;;;5.60;86.70;;;;;;4969903;28;20054;-68
2020/12/17 07:58:49;;;;;;;14.23;7.63;;;5.60;86.60;;;;;;4974048;28;20038;-66
2020/12/17 08:01:15;;;;;;;10.57;7.53;;;5.60;86.60;;;;;;4972859;28;20402;-67
2020/12/17 08:03:49;;;;;;;15.82;10.38;;;5.60;86.50;;;;;;4971302;28;20126;-67
2020/12/17 08:06:20;;;;;;;12.57;8.60;;;5.60;86.60;;;;;;4975788;28;20046;-67
2020/12/17 08:08:47;;;;;;;13.38;9.73;;;5.60;86.60;;;;;;4969144;28;20398;-68
2020/12/17 08:11:12;;;;;;;14.75;10.40;;;5.60;86.60;;;;;;4972245;28;20134;-68
2020/12/17 08:13:39;;;;;;;15.35;10.70;;;5.60;86.60;;;;;;4972761;28;20513;-68
2020/12/17 08:16:05;;;;;;;11.40;7.78;;;5.60;86.80;;;;;;4986657;28;20182;-68
2020/12/17 08:18:33;;;;;;;12.65;8.00;;;5.60;86.90;;;;;;4986154;28;20042;-67
2020/12/17 08:21:04;;;;;;;11.27;7.85;;;5.70;87.10;;;;;;4980794;28;20052;-67
2020/12/17 08:23:50;;;;;;;11.82;7.75;;;5.70;87.10;;;;;;4989386;28;20371;-68
2020/12/17 08:26:19;;;;;;;12.20;8.00;;;5.70;87.00;;;;;;4983612;28;20047;-68
2020/12/17 08:28:45;;;;;;;10.93;7.32;;;5.70;87.00;;;;;;4991538;28;20030;-68
2020/12/17 08:31:16;;;;;;;11.90;7.95;;;5.80;86.90;;;;;;4988230;28;20113;-67
2020/12/17 08:33:45;;;;;;;10.65;7.65;;;5.80;86.80;;;;;;4988316;28;20034;-68
2020/12/17 08:36:23;;;;;;;12.07;8.10;;;5.80;86.80;;;;;;4992163;28;20105;-68
2020/12/17 08:39:08;;;;;;;10.70;7.53;;;5.90;86.70;;;;;;4990747;28;20518;-68
2020/12/17 08:41:41;;;;;;;11.82;7.93;;;5.90;86.70;;;;;;4988658;28;20109;-67
2020/12/17 08:44:08;;;;;;;11.60;8.13;;;5.90;86.50;;;;;;4988607;28;20023;-67
2020/12/17 08:46:44;;;;;;;12.82;9.02;;;5.90;86.50;;;;;;4991590;28;20117;-66
2020/12/17 08:49:12;;;;;;;10.70;7.53;;;5.90;86.60;;;;;;4982840;28;20034;-67
2020/12/17 08:51:43;;;;;;;10.85;7.90;;;5.90;86.50;;;;;;4986633;28;20030;-67
2020/12/17 08:54:09;;;;;;;12.55;8.43;;;5.90;86.50;;;;;;4986088;28;20089;-68
2020/12/17 08:56:35;;;;;;;11.23;7.97;;;6.00;86.60;;;;;;4990161;28;20095;-68
2020/12/17 08:59:05;;;;;;;10.38;7.65;;;6.00;86.60;;;;;;4989753;28;20061;-67
2020/12/17 09:01:41;;;;;;;9.40;6.78;;;6.00;86.60;;;;;;4990568;28;20349;-67
2020/12/17 09:04:08;;;;;;;10.88;7.25;;;6.00;86.50;;;;;;4989036;28;20050;-67
2020/12/17 09:06:37;;;;;;;11.05;6.68;;;6.10;86.50;;;;;;4984747;28;20458;-68
2020/12/17 09:09:18;;;;;;;10.68;7.63;;;6.10;86.50;;;;;;4991046;28;20077;-68
2020/12/17 09:11:46;;;;;;;12.18;7.40;;;6.10;86.60;;;;;;4984133;28;20047;-68
2020/12/17 09:14:19;;;;;;;10.57;7.15;;;6.20;86.60;;;;;;5001855;28;20038;-67
2020/12/17 09:16:46;;;;;;;10.27;7.53;;;6.20;86.50;;;;;;4991009;28;20594;-67
2020/12/17 09:19:12;;;;;;;11.98;7.63;;;6.20;86.50;;;;;;4987569;28;20121;-68
2020/12/17 09:21:57;;;;;;;12.32;7.70;;;6.30;86.50;;;;;;4990687;28;20034;-67
2020/12/17 09:24:30;;;;;;;10.02;6.95;;;6.30;86.30;;;;;;4987988;28;20042;-68
2020/12/17 09:26:59;;;;;;;10.40;7.38;;;6.30;86.10;;;;;;4988468;28;20031;-68
2020/12/17 09:29:25;;;;;;;11.38;7.60;;;6.30;86.00;;;;;;4991027;28;20514;-67
2020/12/17 09:31:51;;;;;;;10.82;7.25;;;6.40;85.90;;;;;;4987822;28;20040;-67
2020/12/17 09:34:18;;;;;;;9.00;6.63;;;6.30;85.70;;;;;;4985984;28;20097;-67
2020/12/17 09:37:04;;;;;;;9.93;7.38;;;6.40;85.80;;;;;;4988381;28;20066;-67
2020/12/17 09:39:30;;;;;;;;;;;6.40;85.80;;;;;;4988642;28;20080;-68
2020/12/17 09:41:57;;;;;;;9.20;6.55;;;6.40;85.70;;;;;;4989728;28;19914;-67
2020/12/17 09:44:34;;;;;;;8.93;6.43;;;6.40;85.40;;;;;;4988001;28;20035;-68
2020/12/17 09:47:02;;;;;;;10.30;7.07;;;6.40;85.30;;;;;;4981008;28;20038;-67
2020/12/17 09:49:37;;;;;;;9.88;6.82;;;6.40;85.30;;;;;;4990473;28;20037;-68
2020/12/17 09:52:12;;;;;;;10.02;7.40;;;6.40;85.20;;;;;;4985958;28;20038;-67
2020/12/17 09:54:41;;;;;;;9.93;7.28;;;6.40;85.30;;;;;;4988039;28;20046;-68
2020/12/17 09:57:11;;;;;;;11.70;7.60;;;6.40;85.40;;;;;;4989259;28;20034;-67
2020/12/17 09:59:38;;;;;;;10.45;7.63;;;6.40;85.50;;;;;;4989630;28;20042;-67
2020/12/17 10:02:05;;;;;;;13.48;8.68;;;6.40;85.70;;;;;;4989075;28;20034;-68
2020/12/17 10:04:32;;;;;;;12.45;8.52;;;6.40;86.00;;;;;;4982653;28;20522;-67
2020/12/17 10:06:59;;;;;;;11.25;8.05;;;6.40;86.00;;;;;;4990566;28;20104;-68
2020/12/17 10:09:25;;;;;;;11.40;8.02;;;6.50;85.90;;;;;;4989724;28;20097;-68
2020/12/17 10:11:52;;;;;;;11.77;7.95;;;6.50;85.90;;;;;;4985345;28;20045;-67
2020/12/17 10:14:19;;;;;;;11.82;7.78;;;6.50;85.70;;;;;;4982578;28;20030;-68
2020/12/17 10:16:46;;;;;;;10.88;7.72;;;6.50;85.60;;;;;;4984638;28;20062;-68
2020/12/17 10:19:12;;;;;;;12.10;8.55;;;6.60;85.60;;;;;;4984152;28;20049;-68
2020/12/17 10:21:39;;;;;;;11.35;8.02;;;6.60;85.60;;;;;;4987217;28;20169;-68
2020/12/17 10:24:07;;;;;;;13.60;8.05;;;6.60;85.80;;;;;;4990245;28;20042;-67
2020/12/17 10:26:34;;;;;;;21.23;13.88;;;6.60;85.80;;;;;;4986808;28;20042;-67
2020/12/17 10:29:02;;;;;;;12.80;8.60;;;6.70;85.80;;;;;;4980178;28;20121;-66
2020/12/17 10:31:28;;;;;;;19.38;11.77;;;6.70;85.70;;;;;;4988060;28;20034;-67
2020/12/17 10:33:55;;;;;;;21.17;13.55;;;6.70;85.50;;;;;;4985496;28;20361;-68
2020/12/17 10:36:24;;;;;;;12.70;9.07;;;6.70;85.40;;;;;;4983892;28;20035;-68
2020/12/17 10:38:51;;;;;;;13.38;8.65;;;6.70;85.30;;;;;;4987985;28;20053;-67
2020/12/17 10:41:25;;;;;;;11.25;7.65;;;6.70;85.40;;;;;;4989456;28;20130;-67
2020/12/17 10:43:52;;;;;;;11.13;7.75;;;6.70;85.40;;;;;;4986490;28;20498;-68
2020/12/17 10:46:18;;;;;;;11.77;7.57;;;6.70;85.50;;;;;;4987863;28;20034;-68
2020/12/17 10:48:45;;;;;;;10.48;7.78;;;6.80;85.60;;;;;;4983920;28;20038;-68
2020/12/17 10:51:15;;;;;;;14.77;9.13;;;6.70;85.50;;;;;;4989847;28;20054;-68
2020/12/17 10:53:42;;;;;;;11.75;8.02;;;6.80;85.40;;;;;;4988767;28;20046;-65
2020/12/17 10:56:09;;;;;;;12.57;8.65;;;6.80;85.40;;;;;;4981510;28;20035;-67
2020/12/17 10:58:35;;;;;;;12.63;7.88;;;6.80;85.40;;;;;;4987773;28;20049;-68
2020/12/17 11:01:02;;;;;;;15.35;8.55;;;6.80;85.50;;;;;;4985726;28;20528;-67
2020/12/17 11:03:29;;;;;;;12.80;8.27;;;6.80;85.30;;;;;;4988410;28;20030;-68
2020/12/17 11:05:56;;;;;;;12.38;8.82;;;6.80;85.40;;;;;;4988799;28;20019;-68
2020/12/17 11:08:26;;;;;;;13.48;8.32;;;6.80;85.50;;;;;;4982353;28;20467;-68
2020/12/17 11:10:52;;;;;;;14.35;10.50;;;6.80;85.70;;;;;;4984740;28;20745;-67
2020/12/17 11:13:18;;;;;;;13.95;9.77;;;6.80;85.70;;;;;;4989054;28;20057;-68
2020/12/17 11:15:43;;;;;;;18.30;12.98;;;6.80;85.80;;;;;;4979858;28;20089;-68
2020/12/17 11:18:14;;;;;;;14.25;10.05;;;6.80;85.80;;;;;;4989377;28;20072;-68
2020/12/17 11:20:40;;;;;;;11.43;8.07;;;6.90;85.70;;;;;;4988645;28;22171;-68
2020/12/17 11:23:06;;;;;;;15.07;9.20;;;6.90;85.70;;;;;;4985010;28;20027;-68
2020/12/17 11:25:36;;;;;;;16.00;9.88;;;6.90;85.70;;;;;;4984595;28;20035;-68
2020/12/17 11:28:08;;;;;;;12.85;8.85;;;6.90;86.50;;;;;;4985587;28;20510;-67
2020/12/17 11:30:35;;;;;;;13.65;8.55;;;6.90;85.60;;;;;;4988341;28;20062;-68
2020/12/17 11:33:00;;;;;;;15.10;10.05;;;6.90;85.50;;;;;;4992650;28;20094;-68
2020/12/17 11:35:26;;;;;;;14.88;9.35;;;6.90;85.50;;;;;;4987398;28;20035;-68
2020/12/17 11:37:52;;;;;;;15.02;9.65;;;6.90;85.50;;;;;;4992356;28;20034;-67
2020/12/17 11:40:19;;;;;;;10.63;7.88;;;6.90;85.60;;;;;;4992856;28;20112;-67
2020/12/17 11:42:45;;;;;;;15.63;10.02;;;6.90;85.70;;;;;;4990640;28;20069;-68
2020/12/17 11:45:10;;;;;;;13.32;9.10;;;6.90;85.70;;;;;;4985825;28;20039;-68
2020/12/17 11:47:36;;;;;;;11.95;8.27;;;6.90;85.70;;;;;;4992907;28;20049;-68
2020/12/17 11:50:03;;;;;;;11.68;8.25;;;6.90;85.70;;;;;;4991054;28;20034;-68
2020/12/17 11:52:29;;;;;;;12.85;8.45;;;6.90;85.70;;;;;;4990075;28;20034;-67
2020/12/17 11:54:55;;;;;;;11.30;7.97;;;7.00;85.90;;;;;;4989060;28;20521;-67
2020/12/17 11:57:20;;;;;;;12.57;8.95;;;7.00;85.70;;;;;;4983736;28;20549;-68
2020/12/17 11:59:46;;;;;;;12.45;8.90;;;7.00;85.70;;;;;;4978506;28;20039;-68
2020/12/17 12:02:12;;;;;;;14.93;9.05;;;7.00;85.70;;;;;;4988285;28;20034;-68
2020/12/17 12:04:37;;;;;;;12.02;8.65;;;7.10;85.90;;;;;;4989379;28;20054;-67
2020/12/17 12:07:03;;;;;;;15.40;8.73;;;7.10;86.00;;;;;;4992384;28;20033;-68
2020/12/17 12:09:29;;;;;;;16.77;9.30;;;7.10;85.90;;;;;;4989057;28;20353;-68
2020/12/17 12:11:55;;;;;;;12.95;9.45;;;7.10;85.80;;;;;;4983090;28;20030;-68
2020/12/17 12:14:21;;;;;;;14.93;9.30;;;7.20;85.80;;;;;;4987583;28;20038;-67
2020/12/17 12:16:47;;;;;;;12.38;9.07;;;7.20;85.70;;;;;;4986801;28;20043;-68
2020/12/17 12:19:13;;;;;;;13.98;10.07;;;7.30;85.70;;;;;;4990173;28;20045;-68
2020/12/17 12:21:38;;;;;;;12.32;8.90;;;7.40;85.70;;;;;;4995182;28;20125;-68
2020/12/17 12:24:04;;;;;;;12.27;9.52;;;7.30;85.40;;;;;;4988877;28;20041;-68
2020/12/17 12:26:30;;;;;;;15.38;8.52;;;7.30;85.30;;;;;;4983471;28;20038;-68
2020/12/17 12:28:55;;;;;;;13.05;9.02;;;7.30;85.40;;;;;;4995771;28;20030;-69
2020/12/17 12:31:21;;;;;;;13.10;9.02;;;7.40;85.50;;;;;;4992067;28;20117;-69
2020/12/17 12:33:47;;;;;;;14.73;9.63;;;7.40;85.50;;;;;;4991937;28;20116;-68
2020/12/17 12:36:13;;;;;;;16.90;9.30;;;7.40;85.50;;;;;;4989340;28;20038;-68
2020/12/17 12:38:39;;;;;;;14.63;9.35;;;7.40;85.50;;;;;;4982471;28;20045;-67
2020/12/17 12:41:06;;;;;;;14.73;10.20;;;7.50;85.50;;;;;;4992267;28;20030;-68
2020/12/17 12:43:32;;;;;;;17.83;11.40;;;7.50;85.50;;;;;;4990885;28;20031;-68
2020/12/17 12:45:57;;;;;;;19.58;12.48;;;7.50;85.40;;;;;;4993123;28;20023;-67
2020/12/17 12:48:23;;;;;;;14.70;10.75;;;7.60;85.30;;;;;;4990205;28;20062;-68
2020/12/17 12:50:50;;;;;;;13.90;9.95;;;7.60;85.20;;;;;;4988665;28;20029;-69